Metar/Speci

METEOROLOGICAL AERODROME REPORT
STASIUN METEOROLOGI HANG NADIM BATAM

ADDS - METARS form results

(1111 UTC 15 November 2018)
Data provider http://aviationweather.gov/metar/data/
 
Forecast for: WIDD (HANG NADIM , ID)
Text: TAF WIDD 151100Z 1512/1612 00000KT 9999 FEW014
Forecast period: 1200 UTC 15 November 2018 to 1200 UTC 16 November 2018
Forecast type: FROM: standard forecast or significant change
Winds: calm
Visibility: 6 or more miles 10+ km)
Ceiling: at least 12,000 feet AGL
Clouds: few clouds at 1400 feet AGL
Weather: no significant weather forecast for this period
Text: BECMG 1501/1503 11005KT
Forecast period: 0100 UTC 15 November 2018 to 1200 UTC 16 November 2018
Forecast type: BECOMING: Conditions expected to become as follows by 0300 UTC 15 November 2018
Winds: from the ESE (110 degrees) at 6 MPH (5 knots; 2.6 m/s)
Visibility: 6 or more miles 10+ km)
Ceiling: at least 12,000 feet AGL
Clouds: few clouds at 1400 feet AGL
Weather: no significant weather forecast for this period

Informasi METAR/SPECI dapat diakses juga di http://aviation.bmkg.go.id